Orchards, Washington
Current Conditions -  °F | °C
As of 4:53 PM on Tuesday 21 Oct 2014 (Local Time) from KVUO Reporting Station
Overcast Overcast  
Wind Chill: 60°   Ceiling: 6000
Heat Index: 60°   Visibility: 10mi
Dew Point: 49°   Wind: 8mph
Humidity: 67%   Direction: 150°SSE
Pressure: 29.95"   Gusts: NA
Location:  45.6907°N, 122.574°W
Report Text: KVUO 212353Z AUTO 15007KT 10SM FEW040 BKN060 OVC075 16/09 A2995 RMK AO2 SLP142 T01560094 10161 20139 56009
Loading
Personal Weather Stations






























Interactive Weather Map
Tropical Storm Tracking
New forecast layout! Learn more

10-Day Weather Forecast

Advertisements
Track Severe Weather on mobile